Time;durP1;ratioP1;P1;durP2;ratioP2;P2;SDS_P1;SDS_P2;PMS_P1;PMS_P2;Temp;Humidity;BMP_temperature;BMP_pressure;BME280_temperature;BME280_humidity;BME280_pressure;Samples;Min_cycle;Max_cycle;Signal;HPM_P1;HPM_P2
2023/06/21 00:02:11;;;;;;;6.18;3.05;;;;;;;11.21;100.00;100433.97;5053736;28;20033;-84
2023/06/21 00:04:37;;;;;;;6.63;3.05;;;;;;;11.12;100.00;100418.16;5037199;28;20382;-82
2023/06/21 00:07:03;;;;;;;7.13;2.88;;;;;;;10.88;100.00;100401.28;5053599;28;20037;-82
2023/06/21 00:09:28;;;;;;;4.95;2.70;;;;;;;11.14;100.00;100432.22;5036966;28;20399;-86
2023/06/21 00:11:55;;;;;;;6.32;3.20;;;;;;;11.12;100.00;100427.06;5020587;28;20067;-81
2023/06/21 00:14:21;;;;;;;6.50;3.33;;;;;;;11.16;100.00;100431.00;5037123;28;20490;-82
2023/06/21 00:16:47;;;;;;;8.40;3.25;;;;;;;11.22;100.00;100432.16;5037149;28;20041;-83
2023/06/21 00:19:12;;;;;;;6.35;3.00;;;;;;;11.19;100.00;100425.28;5053092;28;20030;-83
2023/06/21 00:21:38;;;;;;;6.35;2.65;;;;;;;11.22;100.00;100429.47;5036585;28;20039;-83
2023/06/21 00:24:06;;;;;;;9.10;3.60;;;;;;;11.27;100.00;100437.78;5036767;28;20402;-82
2023/06/21 00:26:32;;;;;;;5.35;3.08;;;;;;;11.23;100.00;100431.94;5004393;28;20033;-83
2023/06/21 00:28:58;;;;;;;5.25;2.83;;;;;;;11.27;100.00;100429.69;5036669;28;20036;-86
2023/06/21 00:31:23;;;;;;;6.75;2.78;;;;;;;11.43;100.00;100447.50;5036652;28;20383;-83
2023/06/21 00:33:49;;;;;;;5.20;2.40;;;;;;;11.47;100.00;100445.28;5053235;28;20029;-83
2023/06/21 00:36:15;;;;;;;5.07;2.80;;;;;;;11.43;100.00;100442.09;5036411;28;20375;-82
2023/06/21 00:38:41;;;;;;;5.40;3.03;;;;;;;11.23;100.00;100425.72;5052827;28;20029;-82
2023/06/21 00:41:07;;;;;;;5.40;2.88;;;;;;;11.12;100.00;100435.13;5052741;28;20029;-82
2023/06/21 00:43:33;;;;;;;7.85;2.85;;;;;;;11.02;100.00;100457.94;5036265;28;20479;-82
2023/06/21 00:45:59;;;;;;;5.47;2.67;;;;;;;10.81;100.00;100443.38;5052650;28;20087;-85
2023/06/21 00:48:28;;;;;;;4.18;2.35;;;;;;;10.74;100.00;100450.50;5019897;28;20071;-82
2023/06/21 00:50:58;;;;;;;6.25;3.05;;;;;;;10.59;100.00;100449.69;5036983;28;20417;-83
2023/06/21 00:53:26;;;;;;;87.60;9.82;;;;;;;10.48;100.00;100448.28;5036452;28;20048;-82
2023/06/21 00:55:52;;;;;;;4.38;2.40;;;;;;;10.33;100.00;100442.84;5019751;28;20043;-83
2023/06/21 00:58:20;;;;;;;6.82;2.53;;;;;;;10.32;100.00;100458.16;5036123;28;20029;-84
2023/06/21 01:00:49;;;;;;;5.35;2.67;;;;;;;10.18;100.00;100441.94;5036777;28;20484;-83
2023/06/21 01:03:16;;;;;;;4.05;2.45;;;;;;;10.16;100.00;100442.16;5036742;28;20033;-84
2023/06/21 01:05:44;;;;;;;16.77;3.38;;;;;;;10.19;100.00;100459.72;5052301;28;20123;-82
2023/06/21 01:08:16;;;;;;;3.78;1.90;;;;;;;9.88;100.00;100423.88;5036500;28;20044;-83
2023/06/21 01:10:46;;;;;;;;;;;;;;;10.18;100.00;100469.66;5019950;28;20056;-82
2023/06/21 01:13:41;;;;;;;3.13;1.88;;;;;;;10.00;100.00;100436.88;5052226;28;19948;-85
2023/06/21 01:16:13;;;;;;;3.72;1.30;;;;;;;9.98;100.00;100455.06;5035951;28;20037;-82
2023/06/21 01:18:40;;;;;;;1.27;0.93;;;;;;;9.91;100.00;100457.59;5019072;28;20111;-83
2023/06/21 01:21:07;;;;;;;1.48;0.80;;;;;;;9.93;100.00;100478.91;5035814;28;20037;-84
2023/06/21 01:23:51;;;;;;;1.65;1.05;;;;;;;9.79;100.00;100470.63;5019318;28;20182;-86
2023/06/21 01:26:51;;;;;;;2.33;1.20;;;;;;;9.58;100.00;100460.50;5051997;28;20033;-84
2023/06/21 01:29:38;;;;;;;3.45;1.63;;;;;;;9.68;100.00;100487.09;5051914;28;20036;-84
2023/06/21 01:32:05;;;;;;;2.05;1.17;;;;;;;9.72;100.00;100484.94;5019193;28;20029;-86
2023/06/21 01:34:32;;;;;;;2.58;1.58;;;;;;;9.79;100.00;100486.72;5035575;28;20382;-83
2023/06/21 01:37:00;;;;;;;3.45;1.60;;;;;;;9.92;100.00;100491.50;5035517;28;20040;-83
2023/06/21 01:39:29;;;;;;;2.13;1.40;;;;;;;10.04;100.00;100497.31;5052009;28;20060;-83
2023/06/21 01:41:56;;;;;;;3.80;1.98;;;;;;;10.13;100.00;100494.38;5052303;28;20032;-85
2023/06/21 01:44:22;;;;;;;6.15;2.25;;;;;;;10.18;100.00;100501.06;5035518;28;20133;-85
2023/06/21 01:46:51;;;;;;;3.85;1.95;;;;;;;10.23;100.00;100493.28;5035410;28;20041;-82
2023/06/21 01:49:18;;;;;;;3.35;1.88;;;;;;;10.25;100.00;100496.66;5052183;28;20065;-84
2023/06/21 01:51:44;;;;;;;8.95;2.08;;;;;;;10.21;100.00;100487.25;5035136;28;20033;-82
2023/06/21 01:54:10;;;;;;;2.83;1.77;;;;;;;10.25;100.00;100484.03;5023091;28;20033;-82
2023/06/21 01:56:37;;;;;;;4.65;1.88;;;;;;;10.41;100.00;100519.91;5056205;28;20482;-83
2023/06/21 01:59:02;;;;;;;4.70;2.10;;;;;;;10.38;100.00;100493.38;5022836;28;20036;-82
2023/06/21 02:01:30;;;;;;;2.33;1.33;;;;;;;10.52;100.00;100511.41;5023042;28;20057;-82
2023/06/21 02:03:59;;;;;;;2.90;1.70;;;;;;;10.56;100.00;100513.56;5023090;28;20111;-84
2023/06/21 02:06:30;;;;;;;4.75;1.77;;;;;;;10.57;100.00;100509.81;5039691;28;20175;-82
2023/06/21 02:08:59;;;;;;;4.85;1.63;;;;;;;10.43;100.00;100491.00;5023300;28;20087;-84
2023/06/21 02:11:28;;;;;;;2.83;1.77;;;;;;;10.51;100.00;100520.50;5023155;28;20101;-82
2023/06/21 02:13:54;;;;;;;5.03;2.03;;;;;;;10.44;100.00;100501.53;5022650;28;20033;-83
2023/06/21 02:16:29;;;;;;;2.45;1.55;;;;;;;10.47;100.00;100494.97;5039008;28;20039;-85
2023/06/21 02:18:55;;;;;;;2.65;1.40;;;;;;;10.62;100.00;100521.91;5022746;28;20123;-81
2023/06/21 02:21:21;;;;;;;3.95;1.75;;;;;;;10.59;100.00;100508.84;5055804;28;20028;-84
2023/06/21 02:23:47;;;;;;;3.70;1.80;;;;;;;10.67;100.00;100496.13;5055506;28;20064;-84
2023/06/21 02:26:12;;;;;;;4.93;1.90;;;;;;;10.82;100.00;100514.97;5038922;28;20064;-82
2023/06/21 02:28:38;;;;;;;3.42;1.83;;;;;;;10.85;100.00;100527.22;5022495;28;20033;-83
2023/06/21 02:31:04;;;;;;;5.75;2.60;;;;;;;10.79;100.00;100518.03;5039121;28;20040;-83
2023/06/21 02:33:31;;;;;;;3.72;1.67;;;;;;;10.60;100.00;100491.66;5038986;28;20033;-84
2023/06/21 02:35:57;;;;;;;7.38;2.15;;;;;;;10.80;100.00;100522.41;5055374;28;20486;-84
2023/06/21 02:38:25;;;;;;;3.25;1.63;;;;;;;10.73;100.00;100516.09;5055165;28;20025;-84
2023/06/21 02:40:54;;;;;;;3.60;1.88;;;;;;;10.73;100.00;100519.59;5038990;28;20036;-82
2023/06/21 02:43:20;;;;;;;4.15;2.22;;;;;;;10.66;100.00;100521.34;5038852;28;20033;-81
2023/06/21 02:45:46;;;;;;;4.82;2.10;;;;;;;10.68;100.00;100535.44;5038472;28;20356;-81
2023/06/21 02:48:12;;;;;;;3.92;1.85;;;;;;;10.67;100.00;100539.16;5055355;28;20040;-82
2023/06/21 02:50:38;;;;;;;5.10;2.00;;;;;;;10.67;100.00;100539.16;5055165;28;20124;-83
2023/06/21 02:53:03;;;;;;;2.83;1.73;;;;;;;10.67;100.00;100538.34;5055019;28;20120;-80
2023/06/21 02:55:29;;;;;;;3.80;2.33;;;;;;;10.57;100.00;100523.28;5054583;28;20077;-83
2023/06/21 02:57:55;;;;;;;4.72;2.35;;;;;;;10.70;100.00;100524.53;5054666;28;20029;-81
2023/06/21 03:00:28;;;;;;;3.85;2.25;;;;;;;10.86;100.00;100542.34;5054641;28;20091;-83
2023/06/21 03:03:00;;;;;;;4.50;2.10;;;;;;;10.94;100.00;100548.47;5039385;28;20090;-83
2023/06/21 03:05:29;;;;;;;3.38;1.98;;;;;;;10.97;100.00;100549.97;5053680;28;20424;-83
2023/06/21 03:07:56;;;;;;;3.28;2.38;;;;;;;10.94;100.00;100539.59;5038278;28;20033;-83
2023/06/21 03:10:22;;;;;;;4.38;2.50;;;;;;;10.99;100.00;100547.94;5037766;28;20029;-84
2023/06/21 03:12:48;;;;;;;4.88;2.40;;;;;;;10.94;100.00;100540.41;5054590;28;20116;-83
2023/06/21 03:15:13;;;;;;;5.72;2.30;;;;;;;11.08;100.00;100552.19;5037947;28;20068;-83
2023/06/21 03:17:39;;;;;;;4.65;2.00;;;;;;;11.16;100.00;100554.81;5055637;28;20044;-82
2023/06/21 03:20:09;;;;;;;5.85;2.50;;;;;;;11.22;100.00;100550.56;5037749;28;20079;-84
2023/06/21 03:22:35;;;;;;;5.35;2.88;;;;;;;11.25;100.00;100547.50;5022123;28;20037;-87
2023/06/21 03:25:01;;;;;;;4.28;2.53;;;;;;;11.28;100.00;100552.50;5037940;28;20049;-85
2023/06/21 03:27:27;;;;;;;11.95;2.65;;;;;;;11.21;100.00;100551.56;5056262;28;20036;-85
2023/06/21 03:29:53;;;;;;;4.18;2.10;;;;;;;11.10;100.00;100546.66;5054728;28;20061;-83
2023/06/21 03:32:19;;;;;;;4.72;2.35;;;;;;;10.99;100.00;100537.19;5038083;28;20083;-82
2023/06/21 03:34:46;;;;;;;4.07;2.60;;;;;;;10.91;100.00;100529.19;5054449;28;20052;-82
2023/06/21 03:37:12;;;;;;;5.50;2.30;;;;;;;10.98;100.00;100551.63;5037722;28;20474;-81
2023/06/21 03:39:38;;;;;;;4.32;2.28;;;;;;;10.98;100.00;100559.69;5053946;28;20545;-85
2023/06/21 03:42:04;;;;;;;5.68;2.72;;;;;;;10.71;100.00;100518.09;5054127;28;20048;-82
2023/06/21 03:44:29;;;;;;;3.85;2.28;;;;;;;10.71;100.00;100534.25;5053947;28;20032;-81
2023/06/21 03:46:55;;;;;;;5.10;2.55;;;;;;;10.88;100.00;100559.16;5037357;28;20033;-81
2023/06/21 03:49:22;;;;;;;6.32;2.72;;;;;;;10.91;100.00;100562.31;5054126;28;20044;-81
2023/06/21 03:51:48;;;;;;;4.95;2.80;;;;;;;11.04;100.00;100568.91;5055267;28;20051;-82
2023/06/21 03:54:13;;;;;;;5.80;2.75;;;;;;;11.03;100.00;100553.78;5054951;28;20029;-81
2023/06/21 03:56:39;;;;;;;4.72;2.45;;;;;;;10.98;100.00;100554.31;5021007;28;20085;-81
2023/06/21 03:59:05;;;;;;;6.90;2.53;;;;;;;11.02;100.00;100573.63;5053321;28;20064;-84
2023/06/21 04:01:31;;;;;;;6.18;3.42;;;;;;;10.93;100.00;100567.50;5053395;28;20025;-81
2023/06/21 04:03:56;;;;;;;6.10;2.70;;;;;;;10.83;100.00;100565.06;5053578;28;20036;-83
2023/06/21 04:06:23;;;;;;;5.25;2.72;;;;;;;10.74;100.00;100563.47;5036854;28;20040;-83
2023/06/21 04:08:48;;;;;;;6.05;3.05;;;;;;;10.62;100.00;100562.25;5036830;28;20037;-86
2023/06/21 04:11:14;;;;;;;7.93;2.85;;;;;;;10.55;100.00;100567.47;5054524;28;20150;-83
2023/06/21 04:13:40;;;;;;;10.85;3.58;;;;;;;10.38;100.00;100553.34;5053363;28;20036;-82
2023/06/21 04:16:06;;;;;;;38.83;7.30;;;;;;;10.33;100.00;100578.06;5053040;28;20037;-82
2023/06/21 04:18:32;;;;;;;8.77;3.80;;;;;;;10.20;100.00;100576.97;5036472;28;20036;-82
2023/06/21 04:20:58;;;;;;;5.68;3.05;;;;;;;10.14;100.00;100570.44;5054171;28;20064;-84
2023/06/21 04:23:26;;;;;;;7.60;4.10;;;;;;;10.27;100.00;100586.00;5053057;28;20107;-85
2023/06/21 04:25:52;;;;;;;6.57;3.17;;;;;;;10.19;100.00;100560.00;5053385;28;20040;-83
2023/06/21 04:28:25;;;;;;;5.75;2.75;;;;;;;10.40;100.00;100583.56;5020226;28;20055;-83
2023/06/21 04:30:55;;;;;;;5.85;3.03;;;;;;;10.49;100.00;100585.19;5052919;28;20438;-87
2023/06/21 04:33:21;;;;;;;9.27;3.10;;;;;;;10.34;100.00;100568.97;5036148;28;20036;-85
2023/06/21 04:35:47;;;;;;;4.50;2.78;;;;;;;10.44;100.00;100587.56;5020306;28;20037;-84
2023/06/21 04:38:13;;;;;;;5.40;2.97;;;;;;;10.44;100.00;100595.63;5054289;28;20024;-85
2023/06/21 04:40:38;;;;;;;6.63;2.90;;;;;;;10.38;100.00;100588.28;5042610;28;20060;-80
2023/06/21 04:43:05;;;;;;;3.88;2.33;;;;;;;10.40;100.00;100591.63;5056412;28;20036;-81
2023/06/21 04:45:31;;;;;;;5.88;2.60;;;;;;;10.48;100.00;100607.72;5036673;28;20193;-82
2023/06/21 04:47:57;;;;;;;5.50;2.67;;;;;;;10.46;100.00;100611.59;5052934;28;20032;-81
2023/06/21 04:50:24;;;;;;;7.03;2.70;;;;;;;10.46;100.00;100600.84;5053357;28;20032;-81
2023/06/21 04:52:51;;;;;;;5.63;2.00;;;;;;;10.44;100.00;100602.84;5052966;28;20045;-83
2023/06/21 04:55:20;;;;;;;4.72;2.38;;;;;;;10.48;100.00;100609.56;5052826;28;20029;-81
2023/06/21 04:57:47;;;;;;;4.93;2.25;;;;;;;10.46;100.00;100620.47;5052872;28;20119;-82
2023/06/21 05:00:14;;;;;;;4.90;2.72;;;;;;;10.48;100.00;100623.84;5036315;28;20033;-84
2023/06/21 05:02:39;;;;;;;8.02;2.78;;;;;;;10.64;100.00;100625.56;5052762;28;20025;-80
2023/06/21 05:05:05;;;;;;;4.60;2.40;;;;;;;10.87;100.00;100608.56;5052667;28;20029;-81
2023/06/21 05:07:31;;;;;;;3.83;2.30;;;;;;;10.95;100.00;100592.34;5052783;28;20029;-83
2023/06/21 05:09:57;;;;;;;11.15;2.95;;;;;;;11.13;100.00;100608.16;5035912;28;20060;-84
2023/06/21 05:12:22;;;;;;;4.80;2.58;;;;;;;11.19;100.00;100599.34;5036156;28;20035;-83
2023/06/21 05:14:48;;;;;;;4.38;2.75;;;;;;;11.55;100.00;100622.88;5052474;28;20474;-81
2023/06/21 05:17:15;;;;;;;6.25;3.03;;;;;;;11.89;100.00;100614.25;5052512;28;20040;-82
2023/06/21 05:19:42;;;;;;;5.03;2.72;;;;;;;12.21;100.00;100607.59;5035732;28;20025;-80
2023/06/21 05:22:08;;;;;;;5.47;3.08;;;;;;;12.51;100.00;100612.88;5052144;28;20036;-81
2023/06/21 05:24:33;;;;;;;6.60;2.75;;;;;;;12.70;100.00;100603.28;5052343;28;20033;-81
2023/06/21 05:26:59;;;;;;;7.82;3.42;;;;;;;12.98;100.00;100633.84;5035187;28;20051;-81
2023/06/21 05:29:25;;;;;;;4.25;2.55;;;;;;;12.97;100.00;100616.00;5035851;28;20037;-83
2023/06/21 05:31:51;;;;;;;4.93;2.78;;;;;;;13.19;100.00;100633.00;5051883;28;20025;-82
2023/06/21 05:34:17;;;;;;;3.75;2.28;;;;;;;13.20;100.00;100623.88;5035751;28;20091;-81
2023/06/21 05:36:42;;;;;;;4.22;2.25;;;;;;;13.37;100.00;100635.25;5035747;28;20038;-81
2023/06/21 05:39:08;;;;;;;5.68;2.42;;;;;;;13.52;100.00;100631.56;5053220;28;20039;-82
2023/06/21 05:41:34;;;;;;;3.15;1.98;;;;;;;13.71;100.00;100638.16;5052096;28;20384;-81
2023/06/21 05:43:59;;;;;;;4.53;3.08;;;;;;;13.82;100.00;100641.13;5052073;28;20456;-83
2023/06/21 05:46:25;;;;;;;3.45;2.47;;;;;;;13.73;100.00;100644.19;5051809;28;20107;-83
2023/06/21 05:48:50;;;;;;;4.38;2.60;;;;;;;13.69;100.00;100637.53;5052290;28;20037;-84
2023/06/21 05:51:16;;;;;;;4.05;2.33;;;;;;;13.65;100.00;100653.28;5051303;28;20549;-82
2023/06/21 05:53:42;;;;;;;5.60;2.88;;;;;;;13.79;100.00;100654.22;5035182;28;20086;-81
2023/06/21 05:56:07;;;;;;;4.88;3.17;;;;;;;13.63;100.00;100660.75;5035341;28;20037;-84
2023/06/21 05:58:33;;;;;;;4.25;2.75;;;;;;;14.26;100.00;100644.41;5052085;28;20047;-87
2023/06/21 06:00:59;;;;;;;5.10;3.22;;;;;;;14.49;100.00;100653.03;5035252;28;20033;-83
2023/06/21 06:03:24;;;;;;;5.65;3.22;;;;;;;14.70;100.00;100659.34;5019013;28;20407;-84
2023/06/21 06:05:52;;;;;;;6.03;3.50;;;;;;;15.29;100.00;100660.44;5018611;28;20080;-85
2023/06/21 06:08:18;;;;;;;6.07;3.55;;;;;;;15.80;100.00;100667.91;5035518;28;20040;-84
2023/06/21 06:10:44;;;;;;;7.85;4.13;;;;;;;16.10;100.00;100657.38;5051802;28;20032;-87
2023/06/21 06:13:09;;;;;;;5.88;3.90;;;;;;;16.55;100.00;100662.78;5051759;28;20055;-83
2023/06/21 06:15:35;;;;;;;7.13;3.95;;;;;;;16.56;100.00;100669.88;5034954;28;20024;-84
2023/06/21 06:18:01;;;;;;;7.15;3.65;;;;;;;16.43;100.00;100637.38;5035257;28;20037;-85
2023/06/21 06:20:28;;;;;;;6.15;3.40;;;;;;;16.73;100.00;100645.78;5051618;28;20111;-82
2023/06/21 06:22:54;;;;;;;6.88;4.00;;;;;;;16.89;100.00;100660.72;5018665;28;20388;-82
2023/06/21 06:25:19;;;;;;;7.78;4.03;;;;;;;17.05;100.00;100675.66;5035195;28;20037;-82
2023/06/21 06:27:46;;;;;;;5.30;3.35;;;;;;;17.16;100.00;100660.53;5052888;28;20103;-83
2023/06/21 06:30:12;;;;;;;4.85;3.42;;;;;;;17.29;100.00;100655.81;5018847;28;20468;-86
2023/06/21 06:32:38;;;;;;;9.10;4.13;;;;;;;17.30;100.00;100670.22;5051401;28;20423;-85
2023/06/21 06:35:04;;;;;;;5.18;3.47;;;;;;;17.54;100.00;100671.25;5018742;28;20091;-84
2023/06/21 06:37:30;;;;;;;6.05;3.95;;;;;;;17.57;100.00;100674.38;5035243;28;20468;-84
2023/06/21 06:39:55;;;;;;;6.28;3.65;;;;;;;17.99;100.00;100684.63;5038029;28;20043;-84
2023/06/21 06:42:21;;;;;;;6.18;4.10;;;;;;;18.53;100.00;100676.66;5038475;28;20029;-84
2023/06/21 06:44:47;;;;;;;5.05;3.33;;;;;;;18.58;100.00;100684.97;5038176;28;20039;-84
2023/06/21 06:47:13;;;;;;;7.70;4.50;;;;;;;18.52;100.00;100658.63;5055764;28;20033;-84
2023/06/21 06:49:39;;;;;;;9.43;4.03;;;;;;;18.23;100.00;100683.72;5056895;28;20033;-86
2023/06/21 06:52:05;;;;;;;5.53;3.65;;;;;;;18.87;100.00;100677.88;5039454;28;20079;-85
2023/06/21 06:54:31;;;;;;;6.82;4.90;;;;;;;19.53;100.00;100692.31;5055198;28;20028;-84
2023/06/21 06:56:57;;;;;;;5.78;4.13;;;;;;;19.75;100.00;100692.56;5055140;28;20040;-85
2023/06/21 06:59:23;;;;;;;7.22;4.60;;;;;;;20.08;100.00;100693.81;5038461;28;20040;-86
2023/06/21 07:01:49;;;;;;;5.70;4.50;;;;;;;20.02;100.00;100690.16;5054983;28;20111;-84
2023/06/21 07:04:15;;;;;;;8.00;4.00;;;;;;;20.16;100.00;100680.66;5054988;28;20032;-84
2023/06/21 07:06:41;;;;;;;7.70;3.92;;;;;;;20.48;100.00;100685.66;5054753;28;20059;-88
2023/06/21 07:09:08;;;;;;;7.30;4.80;;;;;;;20.64;100.00;100671.25;5038011;28;20198;-85
2023/06/21 07:11:34;;;;;;;7.57;4.55;;;;;;;20.70;100.00;100666.69;5054534;28;20056;-85
2023/06/21 07:14:00;;;;;;;5.32;4.07;;;;;;;21.22;100.00;100707.53;5038100;28;20040;-84
2023/06/21 07:16:29;;;;;;;6.80;3.58;;;;;;;21.65;100.00;100713.44;5037993;28;20024;-85
2023/06/21 07:18:55;;;;;;;6.13;3.55;;;;;;;22.10;100.00;100704.22;5054436;28;20057;-84
2023/06/21 07:21:21;;;;;;;5.43;3.88;;;;;;;22.55;100.00;100717.66;5038074;28;20048;-88
2023/06/21 07:23:48;;;;;;;4.95;4.38;;;;;;;22.56;99.72;100718.50;5054002;28;20750;-86
2023/06/21 07:26:14;;;;;;;7.00;4.10;;;;;;;22.62;100.00;100733.91;5037430;28;20387;-84
2023/06/21 07:28:40;;;;;;;4.28;3.35;;;;;;;22.67;100.00;100724.91;5037310;28;20510;-88
2023/06/21 07:31:06;;;;;;;7.97;4.00;;;;;;;22.34;100.00;100734.94;5053961;28;20029;-86
2023/06/21 07:33:31;;;;;;;5.80;3.92;;;;;;;21.85;100.00;100691.81;5021032;28;20025;-85
2023/06/21 07:35:57;;;;;;;5.57;4.05;;;;;;;22.72;100.00;100736.75;5021257;28;20035;-86
2023/06/21 07:38:23;;;;;;;5.07;3.88;;;;;;;22.69;100.00;100704.38;5055418;28;20033;-86
2023/06/21 07:40:49;;;;;;;5.35;3.58;;;;;;;22.69;99.78;100726.31;5037178;28;20045;-88
2023/06/21 07:43:14;;;;;;;7.68;4.38;;;;;;;23.11;97.40;100731.16;5054176;28;20391;-85
2023/06/21 07:45:41;;;;;;;5.90;4.38;;;;;;;23.66;98.39;100751.13;5037501;28;20455;-86
2023/06/21 07:48:08;;;;;;;7.43;4.22;;;;;;;23.76;97.92;100747.63;5055181;28;20029;-86
2023/06/21 07:50:33;;;;;;;9.95;4.45;;;;;;;24.08;99.52;100756.66;5053148;28;20033;-85
2023/06/21 07:56:28;;;;;;;5.15;4.25;;;;;;;25.11;95.29;100735.88;5052474;28;20466;-85
2023/06/21 07:58:53;;;;;;;7.40;4.72;;;;;;;25.69;93.12;100754.88;5053809;28;20037;-85
2023/06/21 08:01:19;;;;;;;8.88;3.95;;;;;;;25.22;91.18;100711.97;5053454;28;20029;-87
2023/06/21 08:03:45;;;;;;;5.93;4.03;;;;;;;25.16;90.56;100718.53;5020833;28;20685;-88
2023/06/21 08:06:11;;;;;;;5.93;3.78;;;;;;;24.72;96.06;100749.25;5036751;28;20113;-90
2023/06/21 08:08:37;;;;;;;6.45;4.63;;;;;;;25.70;92.05;100742.75;5037383;28;20044;-87
2023/06/21 08:11:03;;;;;;;6.63;4.07;;;;;;;25.21;94.62;100729.56;5020778;28;20041;-91
2023/06/21 08:13:29;;;;;;;5.43;3.75;;;;;;;25.05;95.31;100756.19;5020983;28;20479;-89
2023/06/21 08:15:55;;;;;;;7.40;3.80;;;;;;;24.60;95.53;100734.91;5036810;28;20074;-87
2023/06/21 08:18:20;;;;;;;5.90;3.97;;;;;;;24.43;96.17;100738.66;5040598;28;20033;-87
2023/06/21 08:20:46;;;;;;;5.18;3.70;;;;;;;25.58;93.17;100745.78;5020804;28;20472;-87
2023/06/21 08:23:11;;;;;;;6.35;3.28;;;;;;;26.05;90.09;100757.59;5054808;28;20061;-89
2023/06/21 08:25:37;;;;;;;4.97;3.53;;;;;;;26.15;88.83;100748.50;5036949;28;20059;-86
2023/06/21 08:28:03;;;;;;;5.47;3.42;;;;;;;26.04;88.16;100722.91;5054410;28;20115;-86
2023/06/21 08:30:29;;;;;;;7.22;4.32;;;;;;;24.60;93.49;100762.41;5020820;28;20044;-87
2023/06/21 08:32:55;;;;;;;5.10;3.38;;;;;;;25.61;89.48;100763.69;5037242;28;20041;-88
2023/06/21 08:35:20;;;;;;;5.70;3.92;;;;;;;26.15;88.37;100727.25;5038279;28;20075;-93
2023/06/21 08:37:57;;;;;;;9.18;4.20;;;;;;;26.38;87.89;100771.81;5057330;28;20041;-91
2023/06/21 08:40:27;;;;;;;6.13;4.07;;;;;;;25.73;91.80;100764.25;5057398;28;20025;-94
2023/06/21 08:42:54;;;;;;;4.63;4.00;;;;;;;25.06;97.15;100738.59;5023359;28;20040;-91
2023/06/21 08:45:20;;;;;;;5.43;3.83;;;;;;;24.82;92.96;100731.94;5022674;28;20056;-95
2023/06/21 08:47:47;;;;;;;5.68;3.78;;;;;;;25.91;91.21;100745.50;5039841;28;20032;-92
2023/06/21 08:50:16;;;;;;;3.58;2.97;;;;;;;26.76;85.43;100742.75;5024065;28;20036;-94
2023/06/21 08:52:45;;;;;;;5.18;3.90;;;;;;;26.02;86.54;100749.91;5023189;28;20037;-94
2023/06/21 08:55:13;;;;;;;7.78;4.78;;;;;;;23.63;97.42;100744.22;5023134;28;20475;-91
2023/06/21 08:58:01;;;;;;;5.22;3.38;;;;;;;23.00;100.00;100735.72;5040147;28;20036;-91
2023/06/21 09:00:33;;;;;;;5.82;4.45;;;;;;;24.32;95.43;100773.53;5054422;28;20041;-92
2023/06/21 09:03:37;;;;;;;5.13;3.55;;;;;;;23.88;96.88;100772.97;5038074;28;20063;-90
2023/06/21 09:06:06;;;;;;;4.68;3.83;;;;;;;25.15;93.95;100766.41;5038944;28;20101;-91
2023/06/21 09:08:33;;;;;;;7.20;3.97;;;;;;;27.12;82.13;100751.59;5055275;28;20086;-92
2023/06/21 09:10:59;;;;;;;4.07;3.67;;;;;;;27.17;77.33;100781.13;5039086;28;20388;-93
2023/06/21 09:13:25;;;;;;;3.70;3.10;;;;;;;25.15;84.67;100736.13;5039445;28;20033;-92
2023/06/21 09:15:51;;;;;;;5.75;4.00;;;;;;;24.85;87.97;100734.13;5038264;28;20044;-92
2023/06/21 09:18:18;;;;;;;4.60;3.72;;;;;;;26.43;81.05;100756.09;5056163;28;20025;-91
2023/06/21 09:20:49;;;;;;;4.30;3.75;;;;;;;26.82;82.42;100771.13;5057527;28;20459;-92
2023/06/21 09:23:15;;;;;;;4.18;3.78;;;;;;;28.13;75.97;100786.13;5040976;28;20024;-92
2023/06/21 09:25:42;;;;;;;4.88;3.35;;;;;;;26.48;75.32;100749.72;5024959;28;20040;-93
2023/06/21 09:28:08;;;;;;;6.63;3.72;;;;;;;26.35;78.89;100736.56;5042419;28;20037;-94
2023/06/21 09:30:34;;;;;;;5.20;3.42;;;;;;;25.90;79.43;100760.38;5056773;28;20036;-93
2023/06/21 09:32:59;;;;;;;5.10;2.97;;;;;;;24.80;83.19;100756.97;5054804;28;20037;-93
2023/06/21 09:35:25;;;;;;;4.55;3.47;;;;;;;24.21;86.57;100759.97;5022063;28;20033;-90
2023/06/21 09:37:51;;;;;;;4.82;2.80;;;;;;;23.46;89.55;100738.88;5037968;28;20029;-91
2023/06/21 09:40:16;;;;;;;5.80;3.03;;;;;;;22.63;92.99;100762.97;5038502;28;20460;-92
2023/06/21 09:42:45;;;;;;;4.25;3.28;;;;;;;22.00;96.91;100788.94;5038619;28;20033;-93
2023/06/21 09:45:28;;;;;;;4.60;2.45;;;;;;;21.38;97.72;100798.91;5021699;28;20064;-90
2023/06/21 09:47:54;;;;;;;3.75;3.05;;;;;;;21.16;93.79;100797.91;5038099;28;20032;-91
2023/06/21 09:50:20;;;;;;;6.03;3.47;;;;;;;20.69;93.88;100776.22;5022221;28;20514;-90
2023/06/21 09:52:45;;;;;;;2.85;2.40;;;;;;;20.68;92.36;100799.97;5054354;28;20424;-91
2023/06/21 09:55:15;;;;;;;4.07;3.28;;;;;;;20.67;95.50;100809.25;5037781;28;20033;-89
2023/06/21 09:57:41;;;;;;;4.47;3.95;;;;;;;20.83;93.25;100794.00;5037513;28;20483;-88
2023/06/21 10:00:07;;;;;;;3.53;3.17;;;;;;;21.21;89.17;100760.53;5041983;28;20044;-89
2023/06/21 10:02:40;;;;;;;5.28;4.03;;;;;;;23.55;80.77;100821.56;5056813;28;20041;-87
2023/06/21 10:05:19;;;;;;;6.78;4.28;;;;;;;23.02;80.17;100804.84;5056396;28;20029;-90
2023/06/21 10:07:45;;;;;;;3.70;3.13;;;;;;;21.95;81.08;100798.72;5041313;28;20049;-90
2023/06/21 10:10:12;;;;;;;6.18;4.00;;;;;;;20.91;87.90;100818.22;5054824;28;20029;-90
2023/06/21 10:12:38;;;;;;;7.18;3.63;;;;;;;19.99;95.87;100816.19;5053804;28;20032;-91
2023/06/21 10:15:04;;;;;;;3.83;2.70;;;;;;;19.18;100.00;100825.81;5024172;28;20044;-86
2023/06/21 10:17:31;;;;;;;6.05;3.20;;;;;;;18.56;100.00;100828.66;5040180;28;20395;-91
2023/06/21 10:19:58;;;;;;;4.13;2.95;;;;;;;18.30;100.00;100824.34;5008209;28;20079;-92
2023/06/21 10:22:24;;;;;;;11.38;4.85;;;;;;;18.61;100.00;100829.66;5056903;28;20044;-89
2023/06/21 10:24:51;;;;;;;9.02;4.10;;;;;;;20.18;100.00;100822.34;5023621;28;20037;-86
2023/06/21 10:27:21;;;;;;;7.18;4.82;;;;;;;22.89;100.00;100826.31;5055644;28;20025;-87
2023/06/21 10:30:05;;;;;;;4.53;3.33;;;;;;;24.49;95.80;100806.34;5039002;28;20078;-88
2023/06/21 10:32:33;;;;;;;5.97;3.72;;;;;;;25.73;91.74;100835.03;5039387;28;20051;-89
2023/06/21 10:35:11;;;;;;;3.70;2.58;;;;;;;27.00;84.58;100831.16;5039387;28;20040;-93
2023/06/21 10:38:04;;;;;;;4.07;3.50;;;;;;;27.34;84.63;100838.75;5055888;28;20036;-90
2023/06/21 10:40:32;;;;;;;2.78;2.10;;;;;;;28.19;78.22;100835.56;5056323;28;20033;-90
2023/06/21 10:42:58;;;;;;;3.10;2.85;;;;;;;28.54;79.09;100841.03;5040209;28;20031;-89
2023/06/21 10:45:24;;;;;;;4.97;3.05;;;;;;;27.19;80.04;100839.66;5056749;28;20032;-90
2023/06/21 10:47:53;;;;;;;4.50;2.38;;;;;;;24.02;87.01;100853.00;5023654;28;20062;-88
2023/06/21 10:50:20;;;;;;;2.65;2.15;;;;;;;21.89;96.00;100859.13;5039503;28;20383;-90
2023/06/21 10:52:47;;;;;;;3.20;1.95;;;;;;;20.91;100.00;100858.38;5055954;28;20451;-90
2023/06/21 10:55:14;;;;;;;2.67;2.00;;;;;;;20.59;100.00;100853.34;5022933;28;20032;-91
2023/06/21 10:57:40;;;;;;;4.78;2.08;;;;;;;20.40;100.00;100836.22;5039905;28;20048;-91
2023/06/21 11:00:08;;;;;;;3.03;2.20;;;;;;;20.84;100.00;100850.31;5038824;28;20036;-88
2023/06/21 11:02:35;;;;;;;3.65;2.28;;;;;;;21.16;100.00;100856.16;5023253;28;20033;-89
2023/06/21 11:05:21;;;;;;;2.88;2.25;;;;;;;21.31;100.00;100858.34;5022674;28;20037;-92
2023/06/21 11:07:50;;;;;;;3.97;2.63;;;;;;;21.59;100.00;100873.94;5056833;28;20471;-90
2023/06/21 11:10:17;;;;;;;5.68;2.60;;;;;;;21.98;100.00;100873.22;5059129;28;20032;-92
2023/06/21 11:12:43;;;;;;;5.13;2.80;;;;;;;23.58;100.00;100886.09;5060378;28;20043;-88
2023/06/21 11:15:10;;;;;;;3.95;2.60;;;;;;;24.27;100.00;100864.16;5059314;28;20028;-90
2023/06/21 11:17:37;;;;;;;4.85;2.58;;;;;;;24.43;99.31;100889.00;5023658;28;20100;-88
2023/06/21 11:20:22;;;;;;;5.25;2.85;;;;;;;24.77;98.23;100884.84;5057276;28;20075;-92
2023/06/21 11:23:06;;;;;;;4.45;2.60;;;;;;;24.77;94.95;100873.00;5056808;28;20033;-94
2023/06/21 11:25:36;;;;;;;3.92;2.00;;;;;;;24.30;96.56;100874.63;5040385;28;20029;-91